CMB814 Details

Departure: RAF Mildenhall (EGUN)
Arrival: Joint Base McGuire Dix Lakehurst (KWRI) at N/A
Notes: USTRANSCOM CONTRACT FLIGHT


Current Weather Information
EGUN 191457Z 27014KT 9999 -RA FEW037 BKN046 BKN065 17/13 A2993 RMK AO2A RAB56 SLPNO $
KWRI 191556Z 28009KT 10SM BKN027 32/24 A2999 RMK AO2A SLP154 T03160239 $